EGEC/CAL METAR and TAF weather

Enter ICAO airport designator
Station Type Date Time Source
EGEC METAR 2018/12/10 17:50 UTC NOAA

EGEC 101750Z 12010KT 9999 BKN038 07/05 Q1024


Station Type Date Time Source
EGEC Decoded METAR 2018/12/10 17:50 UTC NOAA

Campbeltown, United Kingdom (EGEC) 55-26-14N 005-41-11W
Dec 10, 2018 - 12:50 PM EST / 2018.12.10 1750 UTC
Wind: from the ESE (120 degrees) at 12 MPH (10 KT):0
Visibility: greater than 7 mile(s):0
Sky conditions: mostly cloudy
Temperature: 44 F (7 C)
Dew Point: 41 F (5 C)
Relative Humidity: 87%
Pressure (altimeter): 30.24 in. Hg (1024 hPa)
ob: EGEC 101750Z 12010KT 9999 BKN038 07/05 Q1024
cycle: 18

Station Type Date Time Source
EGEC TAF UTC NOAA

Error!


Example: see airport list